sensor_id;sensor_type;location;lat;lon;timestamp;P1;durP1;ratioP1;P2;durP2;ratioP2
53108;SDS011;39007;53.090;6.074;2023-05-07T00:01:58;16.90;;;14.05;;
53108;SDS011;39007;53.090;6.074;2023-05-07T00:04:25;15.88;;;13.32;;
53108;SDS011;39007;53.090;6.074;2023-05-07T00:06:51;19.83;;;15.35;;
53108;SDS011;39007;53.090;6.074;2023-05-07T00:09:17;17.13;;;14.70;;
53108;SDS011;39007;53.090;6.074;2023-05-07T00:11:43;17.77;;;14.45;;
53108;SDS011;39007;53.090;6.074;2023-05-07T00:14:09;18.08;;;14.43;;
53108;SDS011;39007;53.090;6.074;2023-05-07T00:16:35;19.50;;;15.07;;
53108;SDS011;39007;53.090;6.074;2023-05-07T00:19:01;18.83;;;15.07;;
53108;SDS011;39007;53.090;6.074;2023-05-07T00:21:27;19.38;;;15.07;;
53108;SDS011;39007;53.090;6.074;2023-05-07T00:23:54;19.50;;;15.25;;
53108;SDS011;39007;53.090;6.074;2023-05-07T00:26:20;18.65;;;15.32;;
53108;SDS011;39007;53.090;6.074;2023-05-07T00:28:46;19.77;;;15.98;;
53108;SDS011;39007;53.090;6.074;2023-05-07T00:31:12;20.05;;;15.20;;
53108;SDS011;39007;53.090;6.074;2023-05-07T00:33:38;21.48;;;15.85;;
53108;SDS011;39007;53.090;6.074;2023-05-07T00:36:04;17.17;;;14.60;;
53108;SDS011;39007;53.090;6.074;2023-05-07T00:38:30;19.95;;;15.40;;
53108;SDS011;39007;53.090;6.074;2023-05-07T00:40:56;17.55;;;14.50;;
53108;SDS011;39007;53.090;6.074;2023-05-07T00:43:23;18.65;;;15.10;;
53108;SDS011;39007;53.090;6.074;2023-05-07T00:45:49;17.75;;;15.13;;
53108;SDS011;39007;53.090;6.074;2023-05-07T00:48:15;20.98;;;17.13;;
53108;SDS011;39007;53.090;6.074;2023-05-07T00:50:41;22.60;;;17.20;;
53108;SDS011;39007;53.090;6.074;2023-05-07T00:53:07;21.95;;;15.68;;
53108;SDS011;39007;53.090;6.074;2023-05-07T00:55:34;20.90;;;16.67;;
53108;SDS011;39007;53.090;6.074;2023-05-07T00:58:01;21.40;;;15.50;;
53108;SDS011;39007;53.090;6.074;2023-05-07T01:00:27;19.88;;;16.17;;
53108;SDS011;39007;53.090;6.074;2023-05-07T01:02:53;20.95;;;16.98;;
53108;SDS011;39007;53.090;6.074;2023-05-07T01:05:20;19.55;;;16.90;;
53108;SDS011;39007;53.090;6.074;2023-05-07T01:07:46;23.35;;;17.52;;
53108;SDS011;39007;53.090;6.074;2023-05-07T01:10:13;20.90;;;16.48;;
53108;SDS011;39007;53.090;6.074;2023-05-07T01:12:39;21.27;;;17.40;;
53108;SDS011;39007;53.090;6.074;2023-05-07T01:15:06;20.27;;;16.52;;
53108;SDS011;39007;53.090;6.074;2023-05-07T01:17:34;20.00;;;17.15;;
53108;SDS011;39007;53.090;6.074;2023-05-07T01:20:00;21.10;;;17.35;;
53108;SDS011;39007;53.090;6.074;2023-05-07T01:22:33;24.23;;;18.52;;
53108;SDS011;39007;53.090;6.074;2023-05-07T01:25:01;24.20;;;18.58;;
53108;SDS011;39007;53.090;6.074;2023-05-07T01:27:28;20.30;;;17.00;;
53108;SDS011;39007;53.090;6.074;2023-05-07T01:29:54;20.83;;;17.05;;
53108;SDS011;39007;53.090;6.074;2023-05-07T01:32:33;22.15;;;17.80;;
53108;SDS011;39007;53.090;6.074;2023-05-07T01:35:01;29.50;;;19.65;;
53108;SDS011;39007;53.090;6.074;2023-05-07T01:37:29;21.80;;;18.75;;
53108;SDS011;39007;53.090;6.074;2023-05-07T01:39:55;24.85;;;19.48;;
53108;SDS011;39007;53.090;6.074;2023-05-07T01:42:21;22.50;;;18.85;;
53108;SDS011;39007;53.090;6.074;2023-05-07T01:44:47;23.08;;;18.65;;
53108;SDS011;39007;53.090;6.074;2023-05-07T01:47:13;26.25;;;19.33;;
53108;SDS011;39007;53.090;6.074;2023-05-07T01:49:41;28.92;;;21.38;;
53108;SDS011;39007;53.090;6.074;2023-05-07T01:52:07;26.58;;;20.67;;
53108;SDS011;39007;53.090;6.074;2023-05-07T01:54:34;24.02;;;19.65;;
53108;SDS011;39007;53.090;6.074;2023-05-07T01:57:00;25.17;;;20.10;;
53108;SDS011;39007;53.090;6.074;2023-05-07T01:59:26;26.42;;;22.10;;
53108;SDS011;39007;53.090;6.074;2023-05-07T02:01:52;26.98;;;21.80;;
53108;SDS011;39007;53.090;6.074;2023-05-07T02:04:19;27.33;;;21.90;;
53108;SDS011;39007;53.090;6.074;2023-05-07T02:06:45;30.08;;;22.15;;
53108;SDS011;39007;53.090;6.074;2023-05-07T02:09:11;31.20;;;22.98;;
53108;SDS011;39007;53.090;6.074;2023-05-07T02:11:38;27.85;;;23.90;;
53108;SDS011;39007;53.090;6.074;2023-05-07T02:14:04;30.50;;;23.83;;
53108;SDS011;39007;53.090;6.074;2023-05-07T02:16:30;28.00;;;23.42;;
53108;SDS011;39007;53.090;6.074;2023-05-07T02:18:56;33.30;;;24.63;;
53108;SDS011;39007;53.090;6.074;2023-05-07T02:21:23;29.90;;;24.45;;
53108;SDS011;39007;53.090;6.074;2023-05-07T02:23:49;30.27;;;24.90;;
53108;SDS011;39007;53.090;6.074;2023-05-07T02:26:15;31.90;;;24.25;;
53108;SDS011;39007;53.090;6.074;2023-05-07T02:28:41;29.02;;;24.55;;
53108;SDS011;39007;53.090;6.074;2023-05-07T02:31:07;30.10;;;24.77;;
53108;SDS011;39007;53.090;6.074;2023-05-07T02:33:33;32.40;;;24.80;;
53108;SDS011;39007;53.090;6.074;2023-05-07T02:36:09;32.75;;;25.20;;
53108;SDS011;39007;53.090;6.074;2023-05-07T02:38:36;32.17;;;26.15;;
53108;SDS011;39007;53.090;6.074;2023-05-07T02:41:02;30.02;;;25.00;;
53108;SDS011;39007;53.090;6.074;2023-05-07T02:43:28;29.08;;;24.67;;
53108;SDS011;39007;53.090;6.074;2023-05-07T02:46:01;31.50;;;25.08;;
53108;SDS011;39007;53.090;6.074;2023-05-07T02:48:27;28.50;;;24.85;;
53108;SDS011;39007;53.090;6.074;2023-05-07T02:50:54;31.77;;;25.60;;
53108;SDS011;39007;53.090;6.074;2023-05-07T02:53:20;29.67;;;25.08;;
53108;SDS011;39007;53.090;6.074;2023-05-07T02:55:46;30.58;;;26.00;;
53108;SDS011;39007;53.090;6.074;2023-05-07T02:58:12;31.65;;;26.45;;
53108;SDS011;39007;53.090;6.074;2023-05-07T03:00:38;30.52;;;25.02;;
53108;SDS011;39007;53.090;6.074;2023-05-07T03:03:04;31.90;;;25.88;;
53108;SDS011;39007;53.090;6.074;2023-05-07T03:05:30;31.90;;;26.65;;
53108;SDS011;39007;53.090;6.074;2023-05-07T03:07:56;33.75;;;27.52;;
53108;SDS011;39007;53.090;6.074;2023-05-07T03:10:22;31.95;;;26.23;;
53108;SDS011;39007;53.090;6.074;2023-05-07T03:12:49;34.30;;;26.60;;
53108;SDS011;39007;53.090;6.074;2023-05-07T03:15:15;31.88;;;26.77;;
53108;SDS011;39007;53.090;6.074;2023-05-07T03:17:41;32.13;;;25.80;;
53108;SDS011;39007;53.090;6.074;2023-05-07T03:20:08;32.03;;;27.20;;
53108;SDS011;39007;53.090;6.074;2023-05-07T03:22:34;32.50;;;26.85;;
53108;SDS011;39007;53.090;6.074;2023-05-07T03:25:00;32.58;;;27.92;;
53108;SDS011;39007;53.090;6.074;2023-05-07T03:27:26;33.10;;;27.45;;
53108;SDS011;39007;53.090;6.074;2023-05-07T03:29:52;32.20;;;26.85;;
53108;SDS011;39007;53.090;6.074;2023-05-07T03:32:18;31.10;;;26.83;;
53108;SDS011;39007;53.090;6.074;2023-05-07T03:34:44;36.55;;;27.48;;
53108;SDS011;39007;53.090;6.074;2023-05-07T03:37:11;35.78;;;29.02;;
53108;SDS011;39007;53.090;6.074;2023-05-07T03:39:37;35.22;;;28.10;;
53108;SDS011;39007;53.090;6.074;2023-05-07T03:42:03;36.28;;;28.55;;
53108;SDS011;39007;53.090;6.074;2023-05-07T03:44:29;36.47;;;29.75;;
53108;SDS011;39007;53.090;6.074;2023-05-07T03:46:55;38.40;;;31.17;;
53108;SDS011;39007;53.090;6.074;2023-05-07T03:49:21;34.17;;;28.48;;
53108;SDS011;39007;53.090;6.074;2023-05-07T03:51:47;36.92;;;30.10;;
53108;SDS011;39007;53.090;6.074;2023-05-07T03:54:13;36.75;;;30.60;;
53108;SDS011;39007;53.090;6.074;2023-05-07T03:56:39;35.50;;;30.77;;
53108;SDS011;39007;53.090;6.074;2023-05-07T03:59:05;34.85;;;29.33;;
53108;SDS011;39007;53.090;6.074;2023-05-07T04:01:31;36.90;;;30.20;;
53108;SDS011;39007;53.090;6.074;2023-05-07T04:03:57;38.08;;;30.48;;
53108;SDS011;39007;53.090;6.074;2023-05-07T04:06:23;35.60;;;29.63;;
53108;SDS011;39007;53.090;6.074;2023-05-07T04:08:50;38.22;;;31.60;;
53108;SDS011;39007;53.090;6.074;2023-05-07T04:11:16;37.60;;;31.42;;
53108;SDS011;39007;53.090;6.074;2023-05-07T04:13:42;37.45;;;31.92;;
53108;SDS011;39007;53.090;6.074;2023-05-07T04:16:08;38.88;;;32.10;;
53108;SDS011;39007;53.090;6.074;2023-05-07T04:18:34;36.45;;;31.58;;
53108;SDS011;39007;53.090;6.074;2023-05-07T04:21:00;42.83;;;33.05;;
53108;SDS011;39007;53.090;6.074;2023-05-07T04:23:26;41.97;;;33.25;;
53108;SDS011;39007;53.090;6.074;2023-05-07T04:25:52;41.67;;;33.33;;
53108;SDS011;39007;53.090;6.074;2023-05-07T04:28:19;42.28;;;33.95;;
53108;SDS011;39007;53.090;6.074;2023-05-07T04:30:45;46.17;;;34.47;;
53108;SDS011;39007;53.090;6.074;2023-05-07T04:33:11;40.10;;;33.20;;
53108;SDS011;39007;53.090;6.074;2023-05-07T04:35:39;40.35;;;33.22;;
53108;SDS011;39007;53.090;6.074;2023-05-07T04:38:05;44.35;;;35.38;;
53108;SDS011;39007;53.090;6.074;2023-05-07T04:40:32;45.88;;;36.10;;
53108;SDS011;39007;53.090;6.074;2023-05-07T04:42:58;42.67;;;33.75;;
53108;SDS011;39007;53.090;6.074;2023-05-07T04:45:24;46.40;;;35.47;;
53108;SDS011;39007;53.090;6.074;2023-05-07T04:47:50;47.15;;;36.47;;
53108;SDS011;39007;53.090;6.074;2023-05-07T04:50:16;44.67;;;34.75;;
53108;SDS011;39007;53.090;6.074;2023-05-07T04:52:44;48.67;;;36.38;;
53108;SDS011;39007;53.090;6.074;2023-05-07T04:55:10;50.38;;;38.25;;
53108;SDS011;39007;53.090;6.074;2023-05-07T04:57:36;45.30;;;37.05;;
53108;SDS011;39007;53.090;6.074;2023-05-07T05:00:05;48.10;;;37.42;;
53108;SDS011;39007;53.090;6.074;2023-05-07T05:02:33;50.85;;;39.38;;
53108;SDS011;39007;53.090;6.074;2023-05-07T05:05:00;53.08;;;39.20;;
53108;SDS011;39007;53.090;6.074;2023-05-07T05:07:29;50.35;;;38.30;;
53108;SDS011;39007;53.090;6.074;2023-05-07T05:09:55;45.90;;;36.60;;
53108;SDS011;39007;53.090;6.074;2023-05-07T05:12:22;50.20;;;37.28;;
53108;SDS011;39007;53.090;6.074;2023-05-07T05:14:48;49.35;;;37.58;;
53108;SDS011;39007;53.090;6.074;2023-05-07T05:17:14;48.22;;;38.33;;
53108;SDS011;39007;53.090;6.074;2023-05-07T05:19:40;53.50;;;39.33;;
53108;SDS011;39007;53.090;6.074;2023-05-07T05:22:06;50.70;;;38.05;;
53108;SDS011;39007;53.090;6.074;2023-05-07T05:24:32;49.42;;;37.88;;
53108;SDS011;39007;53.090;6.074;2023-05-07T05:26:59;47.72;;;36.55;;
53108;SDS011;39007;53.090;6.074;2023-05-07T05:29:26;49.58;;;38.60;;
53108;SDS011;39007;53.090;6.074;2023-05-07T05:31:52;49.55;;;37.15;;
53108;SDS011;39007;53.090;6.074;2023-05-07T05:34:18;46.83;;;35.13;;
53108;SDS011;39007;53.090;6.074;2023-05-07T05:36:44;46.17;;;34.75;;
53108;SDS011;39007;53.090;6.074;2023-05-07T05:39:11;45.63;;;36.45;;
53108;SDS011;39007;53.090;6.074;2023-05-07T05:41:37;45.00;;;36.08;;
53108;SDS011;39007;53.090;6.074;2023-05-07T05:44:03;45.15;;;35.03;;
53108;SDS011;39007;53.090;6.074;2023-05-07T05:46:29;40.78;;;33.53;;
53108;SDS011;39007;53.090;6.074;2023-05-07T05:48:55;43.35;;;33.85;;
53108;SDS011;39007;53.090;6.074;2023-05-07T05:51:22;43.95;;;33.67;;
53108;SDS011;39007;53.090;6.074;2023-05-07T05:53:48;44.85;;;34.85;;
53108;SDS011;39007;53.090;6.074;2023-05-07T05:56:15;41.30;;;32.58;;
53108;SDS011;39007;53.090;6.074;2023-05-07T05:58:41;42.53;;;34.17;;
53108;SDS011;39007;53.090;6.074;2023-05-07T06:01:07;38.63;;;32.38;;
53108;SDS011;39007;53.090;6.074;2023-05-07T06:03:33;40.40;;;33.25;;
53108;SDS011;39007;53.090;6.074;2023-05-07T06:05:59;42.22;;;33.03;;
53108;SDS011;39007;53.090;6.074;2023-05-07T06:08:28;39.85;;;30.67;;
53108;SDS011;39007;53.090;6.074;2023-05-07T06:10:55;39.38;;;32.83;;
53108;SDS011;39007;53.090;6.074;2023-05-07T06:13:21;43.33;;;33.50;;
53108;SDS011;39007;53.090;6.074;2023-05-07T06:15:47;39.70;;;33.33;;
53108;SDS011;39007;53.090;6.074;2023-05-07T06:18:14;38.10;;;31.25;;
53108;SDS011;39007;53.090;6.074;2023-05-07T06:20:40;41.35;;;32.75;;
53108;SDS011;39007;53.090;6.074;2023-05-07T06:23:06;39.00;;;32.25;;
53108;SDS011;39007;53.090;6.074;2023-05-07T06:25:32;39.08;;;32.38;;
53108;SDS011;39007;53.090;6.074;2023-05-07T06:27:58;37.17;;;29.75;;
53108;SDS011;39007;53.090;6.074;2023-05-07T06:30:24;36.22;;;29.55;;
53108;SDS011;39007;53.090;6.074;2023-05-07T06:32:51;38.45;;;30.67;;
53108;SDS011;39007;53.090;6.074;2023-05-07T06:35:18;37.00;;;29.90;;
53108;SDS011;39007;53.090;6.074;2023-05-07T06:37:44;37.00;;;29.45;;
53108;SDS011;39007;53.090;6.074;2023-05-07T06:40:10;35.35;;;30.13;;
53108;SDS011;39007;53.090;6.074;2023-05-07T06:42:36;37.70;;;29.75;;
53108;SDS011;39007;53.090;6.074;2023-05-07T06:45:03;33.58;;;28.55;;
53108;SDS011;39007;53.090;6.074;2023-05-07T06:47:29;33.67;;;28.90;;
53108;SDS011;39007;53.090;6.074;2023-05-07T06:49:56;37.53;;;30.73;;
53108;SDS011;39007;53.090;6.074;2023-05-07T06:52:22;33.85;;;29.42;;
53108;SDS011;39007;53.090;6.074;2023-05-07T06:54:48;33.25;;;27.63;;
53108;SDS011;39007;53.090;6.074;2023-05-07T06:57:14;32.72;;;27.85;;
53108;SDS011;39007;53.090;6.074;2023-05-07T06:59:40;32.88;;;27.92;;
53108;SDS011;39007;53.090;6.074;2023-05-07T07:02:06;32.47;;;26.92;;
53108;SDS011;39007;53.090;6.074;2023-05-07T07:04:33;35.10;;;28.38;;
53108;SDS011;39007;53.090;6.074;2023-05-07T07:06:59;34.45;;;28.58;;
53108;SDS011;39007;53.090;6.074;2023-05-07T07:09:26;33.10;;;26.83;;
53108;SDS011;39007;53.090;6.074;2023-05-07T07:11:52;31.15;;;26.73;;
53108;SDS011;39007;53.090;6.074;2023-05-07T07:14:18;32.30;;;26.95;;
53108;SDS011;39007;53.090;6.074;2023-05-07T07:16:44;31.50;;;26.83;;
53108;SDS011;39007;53.090;6.074;2023-05-07T07:19:11;35.63;;;27.65;;
53108;SDS011;39007;53.090;6.074;2023-05-07T07:21:40;32.95;;;26.27;;
53108;SDS011;39007;53.090;6.074;2023-05-07T07:24:06;31.45;;;26.25;;
53108;SDS011;39007;53.090;6.074;2023-05-07T07:26:32;30.65;;;26.02;;
53108;SDS011;39007;53.090;6.074;2023-05-07T07:28:58;31.25;;;26.60;;
53108;SDS011;39007;53.090;6.074;2023-05-07T07:31:24;34.08;;;26.60;;
53108;SDS011;39007;53.090;6.074;2023-05-07T07:33:50;31.05;;;26.15;;
53108;SDS011;39007;53.090;6.074;2023-05-07T07:36:16;30.48;;;26.38;;
53108;SDS011;39007;53.090;6.074;2023-05-07T07:38:42;30.58;;;26.38;;
53108;SDS011;39007;53.090;6.074;2023-05-07T07:41:08;30.77;;;26.50;;
53108;SDS011;39007;53.090;6.074;2023-05-07T07:43:34;31.08;;;26.52;;
53108;SDS011;39007;53.090;6.074;2023-05-07T07:46:01;32.03;;;27.23;;
53108;SDS011;39007;53.090;6.074;2023-05-07T07:48:27;29.90;;;26.65;;
53108;SDS011;39007;53.090;6.074;2023-05-07T07:50:53;28.52;;;25.45;;
53108;SDS011;39007;53.090;6.074;2023-05-07T07:53:19;29.60;;;26.42;;
53108;SDS011;39007;53.090;6.074;2023-05-07T07:55:45;28.08;;;24.65;;
53108;SDS011;39007;53.090;6.074;2023-05-07T07:58:11;32.70;;;26.83;;
53108;SDS011;39007;53.090;6.074;2023-05-07T08:00:37;28.35;;;24.83;;
53108;SDS011;39007;53.090;6.074;2023-05-07T08:03:03;31.80;;;25.80;;
53108;SDS011;39007;53.090;6.074;2023-05-07T08:05:30;29.88;;;25.70;;
53108;SDS011;39007;53.090;6.074;2023-05-07T08:07:56;32.03;;;26.10;;
53108;SDS011;39007;53.090;6.074;2023-05-07T08:10:23;29.23;;;24.60;;
53108;SDS011;39007;53.090;6.074;2023-05-07T08:12:49;29.95;;;24.83;;
53108;SDS011;39007;53.090;6.074;2023-05-07T08:15:16;28.80;;;24.95;;
53108;SDS011;39007;53.090;6.074;2023-05-07T08:17:42;27.58;;;24.67;;
53108;SDS011;39007;53.090;6.074;2023-05-07T08:20:09;28.05;;;24.45;;
53108;SDS011;39007;53.090;6.074;2023-05-07T08:22:35;27.58;;;23.42;;
53108;SDS011;39007;53.090;6.074;2023-05-07T08:25:02;26.58;;;23.67;;
53108;SDS011;39007;53.090;6.074;2023-05-07T08:27:28;26.13;;;23.33;;
53108;SDS011;39007;53.090;6.074;2023-05-07T08:29:54;27.20;;;23.98;;
53108;SDS011;39007;53.090;6.074;2023-05-07T08:32:20;27.30;;;22.60;;
53108;SDS011;39007;53.090;6.074;2023-05-07T08:34:47;29.98;;;24.33;;
53108;SDS011;39007;53.090;6.074;2023-05-07T08:37:13;29.23;;;23.20;;
53108;SDS011;39007;53.090;6.074;2023-05-07T08:39:39;32.35;;;25.05;;
53108;SDS011;39007;53.090;6.074;2023-05-07T08:42:05;27.48;;;23.45;;
53108;SDS011;39007;53.090;6.074;2023-05-07T08:44:35;30.25;;;25.35;;
53108;SDS011;39007;53.090;6.074;2023-05-07T08:47:02;27.60;;;23.88;;
53108;SDS011;39007;53.090;6.074;2023-05-07T08:49:31;29.00;;;24.92;;
53108;SDS011;39007;53.090;6.074;2023-05-07T08:51:59;28.75;;;24.35;;
53108;SDS011;39007;53.090;6.074;2023-05-07T08:54:25;31.20;;;24.02;;
53108;SDS011;39007;53.090;6.074;2023-05-07T08:56:52;28.00;;;23.25;;
53108;SDS011;39007;53.090;6.074;2023-05-07T08:59:18;30.50;;;24.48;;
53108;SDS011;39007;53.090;6.074;2023-05-07T09:01:44;30.48;;;25.27;;
53108;SDS011;39007;53.090;6.074;2023-05-07T09:04:10;30.05;;;24.58;;
53108;SDS011;39007;53.090;6.074;2023-05-07T09:06:37;29.85;;;24.35;;
53108;SDS011;39007;53.090;6.074;2023-05-07T09:09:07;35.47;;;26.50;;
53108;SDS011;39007;53.090;6.074;2023-05-07T09:11:33;28.90;;;24.27;;
53108;SDS011;39007;53.090;6.074;2023-05-07T09:13:59;30.58;;;25.02;;
53108;SDS011;39007;53.090;6.074;2023-05-07T09:16:29;27.13;;;24.15;;
53108;SDS011;39007;53.090;6.074;2023-05-07T09:18:57;29.08;;;25.10;;
53108;SDS011;39007;53.090;6.074;2023-05-07T09:21:24;28.50;;;23.95;;
53108;SDS011;39007;53.090;6.074;2023-05-07T09:23:51;29.63;;;25.77;;
53108;SDS011;39007;53.090;6.074;2023-05-07T09:26:18;29.60;;;24.40;;
53108;SDS011;39007;53.090;6.074;2023-05-07T09:28:45;29.73;;;24.70;;
53108;SDS011;39007;53.090;6.074;2023-05-07T09:31:11;30.13;;;25.20;;
53108;SDS011;39007;53.090;6.074;2023-05-07T09:33:38;28.60;;;24.30;;
53108;SDS011;39007;53.090;6.074;2023-05-07T09:36:04;29.15;;;25.27;;
53108;SDS011;39007;53.090;6.074;2023-05-07T09:38:34;27.35;;;23.38;;
53108;SDS011;39007;53.090;6.074;2023-05-07T09:41:04;29.48;;;24.30;;
53108;SDS011;39007;53.090;6.074;2023-05-07T09:43:31;28.52;;;23.67;;
53108;SDS011;39007;53.090;6.074;2023-05-07T09:46:00;27.15;;;23.05;;
53108;SDS011;39007;53.090;6.074;2023-05-07T09:48:28;26.50;;;23.08;;
53108;SDS011;39007;53.090;6.074;2023-05-07T09:50:55;26.48;;;22.45;;
53108;SDS011;39007;53.090;6.074;2023-05-07T09:53:25;26.52;;;23.55;;
53108;SDS011;39007;53.090;6.074;2023-05-07T09:55:52;26.58;;;22.05;;
53108;SDS011;39007;53.090;6.074;2023-05-07T09:58:18;28.65;;;23.77;;
53108;SDS011;39007;53.090;6.074;2023-05-07T10:00:44;27.58;;;22.98;;
53108;SDS011;39007;53.090;6.074;2023-05-07T10:03:11;28.25;;;24.27;;
53108;SDS011;39007;53.090;6.074;2023-05-07T10:05:39;26.33;;;23.48;;
53108;SDS011;39007;53.090;6.074;2023-05-07T10:08:06;27.02;;;22.88;;
53108;SDS011;39007;53.090;6.074;2023-05-07T10:10:32;27.33;;;22.55;;
53108;SDS011;39007;53.090;6.074;2023-05-07T10:12:59;29.17;;;23.33;;
53108;SDS011;39007;53.090;6.074;2023-05-07T10:15:26;27.45;;;23.55;;
53108;SDS011;39007;53.090;6.074;2023-05-07T10:17:53;26.55;;;22.60;;
53108;SDS011;39007;53.090;6.074;2023-05-07T10:20:20;25.90;;;22.50;;
53108;SDS011;39007;53.090;6.074;2023-05-07T10:22:47;28.15;;;23.08;;
53108;SDS011;39007;53.090;6.074;2023-05-07T10:25:34;25.77;;;22.90;;
53108;SDS011;39007;53.090;6.074;2023-05-07T10:28:01;22.92;;;20.48;;
53108;SDS011;39007;53.090;6.074;2023-05-07T10:30:53;26.50;;;21.55;;
53108;SDS011;39007;53.090;6.074;2023-05-07T10:33:26;24.85;;;22.10;;
53108;SDS011;39007;53.090;6.074;2023-05-07T10:35:55;24.85;;;22.08;;
53108;SDS011;39007;53.090;6.074;2023-05-07T10:38:23;25.58;;;21.60;;
53108;SDS011;39007;53.090;6.074;2023-05-07T10:40:50;24.63;;;21.55;;
53108;SDS011;39007;53.090;6.074;2023-05-07T10:43:16;24.58;;;20.77;;
53108;SDS011;39007;53.090;6.074;2023-05-07T10:45:42;25.05;;;22.40;;
53108;SDS011;39007;53.090;6.074;2023-05-07T10:50:35;28.30;;;22.10;;
53108;SDS011;39007;53.090;6.074;2023-05-07T10:55:39;23.70;;;20.77;;
53108;SDS011;39007;53.090;6.074;2023-05-07T10:58:27;23.65;;;20.95;;
53108;SDS011;39007;53.090;6.074;2023-05-07T11:00:59;23.73;;;21.20;;
53108;SDS011;39007;53.090;6.074;2023-05-07T11:03:25;24.05;;;19.85;;
53108;SDS011;39007;53.090;6.074;2023-05-07T11:11:17;21.80;;;19.40;;
53108;SDS011;39007;53.090;6.074;2023-05-07T11:13:45;22.77;;;20.25;;
53108;SDS011;39007;53.090;6.074;2023-05-07T11:16:21;23.40;;;20.30;;
53108;SDS011;39007;53.090;6.074;2023-05-07T11:21:31;21.90;;;19.05;;
53108;SDS011;39007;53.090;6.074;2023-05-07T11:23:57;21.70;;;17.95;;
53108;SDS011;39007;53.090;6.074;2023-05-07T11:26:24;24.48;;;19.73;;
53108;SDS011;39007;53.090;6.074;2023-05-07T11:28:50;20.77;;;18.10;;
53108;SDS011;39007;53.090;6.074;2023-05-07T11:31:20;22.20;;;19.73;;
53108;SDS011;39007;53.090;6.074;2023-05-07T11:33:47;22.30;;;18.85;;
53108;SDS011;39007;53.090;6.074;2023-05-07T11:36:14;20.02;;;17.85;;
53108;SDS011;39007;53.090;6.074;2023-05-07T11:38:40;20.50;;;17.50;;
53108;SDS011;39007;53.090;6.074;2023-05-07T11:41:06;21.20;;;17.48;;
53108;SDS011;39007;53.090;6.074;2023-05-07T11:43:33;19.40;;;17.25;;
53108;SDS011;39007;53.090;6.074;2023-05-07T11:46:10;19.92;;;17.30;;
53108;SDS011;39007;53.090;6.074;2023-05-07T11:48:36;19.95;;;17.08;;
53108;SDS011;39007;53.090;6.074;2023-05-07T11:51:03;20.25;;;17.85;;
53108;SDS011;39007;53.090;6.074;2023-05-07T11:53:37;19.50;;;16.95;;
53108;SDS011;39007;53.090;6.074;2023-05-07T11:56:10;19.40;;;16.88;;
53108;SDS011;39007;53.090;6.074;2023-05-07T11:58:37;19.85;;;16.95;;
53108;SDS011;39007;53.090;6.074;2023-05-07T12:01:03;20.30;;;17.73;;
53108;SDS011;39007;53.090;6.074;2023-05-07T12:03:30;18.35;;;16.33;;
53108;SDS011;39007;53.090;6.074;2023-05-07T12:05:56;18.25;;;15.38;;
53108;SDS011;39007;53.090;6.074;2023-05-07T12:08:22;19.75;;;15.75;;
53108;SDS011;39007;53.090;6.074;2023-05-07T12:10:49;19.85;;;17.75;;
53108;SDS011;39007;53.090;6.074;2023-05-07T12:13:23;17.70;;;15.77;;
53108;SDS011;39007;53.090;6.074;2023-05-07T12:15:53;18.45;;;16.05;;
53108;SDS011;39007;53.090;6.074;2023-05-07T12:18:19;19.92;;;16.83;;
53108;SDS011;39007;53.090;6.074;2023-05-07T12:20:46;18.30;;;14.75;;
53108;SDS011;39007;53.090;6.074;2023-05-07T12:23:12;19.33;;;15.00;;
53108;SDS011;39007;53.090;6.074;2023-05-07T12:25:38;17.90;;;15.50;;
53108;SDS011;39007;53.090;6.074;2023-05-07T12:28:07;16.77;;;14.65;;
53108;SDS011;39007;53.090;6.074;2023-05-07T12:30:36;17.63;;;14.55;;
53108;SDS011;39007;53.090;6.074;2023-05-07T12:33:03;18.13;;;15.05;;
53108;SDS011;39007;53.090;6.074;2023-05-07T12:35:29;18.05;;;14.00;;
53108;SDS011;39007;53.090;6.074;2023-05-07T12:37:56;19.15;;;15.50;;
53108;SDS011;39007;53.090;6.074;2023-05-07T12:40:24;17.63;;;15.57;;
53108;SDS011;39007;53.090;6.074;2023-05-07T12:42:52;17.92;;;14.75;;
53108;SDS011;39007;53.090;6.074;2023-05-07T12:45:21;17.25;;;14.05;;
53108;SDS011;39007;53.090;6.074;2023-05-07T12:47:47;17.05;;;15.18;;
53108;SDS011;39007;53.090;6.074;2023-05-07T12:50:14;16.20;;;14.45;;
53108;SDS011;39007;53.090;6.074;2023-05-07T12:52:41;16.80;;;14.63;;
53108;SDS011;39007;53.090;6.074;2023-05-07T12:55:08;19.95;;;15.27;;
53108;SDS011;39007;53.090;6.074;2023-05-07T12:57:38;17.20;;;14.95;;
53108;SDS011;39007;53.090;6.074;2023-05-07T13:00:05;16.60;;;13.45;;
53108;SDS011;39007;53.090;6.074;2023-05-07T13:02:32;15.70;;;13.20;;
53108;SDS011;39007;53.090;6.074;2023-05-07T13:04:58;15.75;;;13.93;;
53108;SDS011;39007;53.090;6.074;2023-05-07T13:07:24;17.38;;;14.85;;
53108;SDS011;39007;53.090;6.074;2023-05-07T13:09:50;17.23;;;14.85;;
53108;SDS011;39007;53.090;6.074;2023-05-07T13:12:16;16.60;;;14.27;;
53108;SDS011;39007;53.090;6.074;2023-05-07T13:14:42;16.25;;;13.80;;
53108;SDS011;39007;53.090;6.074;2023-05-07T13:17:09;14.43;;;12.93;;
53108;SDS011;39007;53.090;6.074;2023-05-07T13:19:35;14.68;;;13.05;;
53108;SDS011;39007;53.090;6.074;2023-05-07T13:22:02;16.58;;;13.88;;
53108;SDS011;39007;53.090;6.074;2023-05-07T13:24:28;14.80;;;13.20;;
53108;SDS011;39007;53.090;6.074;2023-05-07T13:26:54;17.70;;;14.32;;
53108;SDS011;39007;53.090;6.074;2023-05-07T13:29:21;17.63;;;14.07;;
53108;SDS011;39007;53.090;6.074;2023-05-07T13:31:54;14.23;;;12.73;;
53108;SDS011;39007;53.090;6.074;2023-05-07T13:34:20;18.98;;;13.63;;
53108;SDS011;39007;53.090;6.074;2023-05-07T13:36:46;16.65;;;14.10;;
53108;SDS011;39007;53.090;6.074;2023-05-07T13:39:12;13.52;;;11.77;;
53108;SDS011;39007;53.090;6.074;2023-05-07T13:41:38;15.10;;;12.60;;
53108;SDS011;39007;53.090;6.074;2023-05-07T13:44:04;16.83;;;14.13;;
53108;SDS011;39007;53.090;6.074;2023-05-07T13:46:30;16.25;;;13.13;;
53108;SDS011;39007;53.090;6.074;2023-05-07T13:48:56;13.75;;;11.73;;
53108;SDS011;39007;53.090;6.074;2023-05-07T13:51:23;16.67;;;13.65;;
53108;SDS011;39007;53.090;6.074;2023-05-07T13:53:49;14.77;;;13.23;;
53108;SDS011;39007;53.090;6.074;2023-05-07T13:56:15;15.88;;;13.55;;
53108;SDS011;39007;53.090;6.074;2023-05-07T13:58:41;15.85;;;13.43;;
53108;SDS011;39007;53.090;6.074;2023-05-07T14:01:07;14.95;;;13.27;;
53108;SDS011;39007;53.090;6.074;2023-05-07T14:03:33;15.98;;;14.27;;
53108;SDS011;39007;53.090;6.074;2023-05-07T14:06:02;18.77;;;15.77;;
53108;SDS011;39007;53.090;6.074;2023-05-07T14:08:28;18.13;;;14.55;;
53108;SDS011;39007;53.090;6.074;2023-05-07T14:10:55;16.67;;;14.32;;
53108;SDS011;39007;53.090;6.074;2023-05-07T14:13:21;18.15;;;15.18;;
53108;SDS011;39007;53.090;6.074;2023-05-07T14:15:47;18.23;;;15.48;;
53108;SDS011;39007;53.090;6.074;2023-05-07T14:18:14;17.25;;;15.25;;
53108;SDS011;39007;53.090;6.074;2023-05-07T14:20:40;18.02;;;16.05;;
53108;SDS011;39007;53.090;6.074;2023-05-07T14:23:08;16.83;;;14.57;;
53108;SDS011;39007;53.090;6.074;2023-05-07T14:25:35;17.48;;;15.20;;
53108;SDS011;39007;53.090;6.074;2023-05-07T14:28:01;17.02;;;14.82;;
53108;SDS011;39007;53.090;6.074;2023-05-07T14:30:27;17.45;;;15.63;;
53108;SDS011;39007;53.090;6.074;2023-05-07T14:32:53;16.92;;;15.13;;